createdAt,value
2019-05-26T00:01:24.542Z,11.00
2019-05-26T00:03:53.110Z,11.00
2019-05-26T00:06:21.626Z,11.00
2019-05-26T00:08:50.123Z,10.90
2019-05-26T00:11:18.879Z,10.90
2019-05-26T00:13:47.446Z,10.90
2019-05-26T00:16:16.031Z,10.90
2019-05-26T00:18:44.520Z,10.90
2019-05-26T00:21:13.116Z,11.00
2019-05-26T00:23:41.681Z,11.00
2019-05-26T00:26:10.269Z,11.00
2019-05-26T00:28:38.757Z,11.00
2019-05-26T00:31:07.269Z,11.10
2019-05-26T00:33:35.839Z,11.10
2019-05-26T00:36:04.505Z,11.10
2019-05-26T00:38:33.072Z,11.00
2019-05-26T00:41:01.738Z,11.00
2019-05-26T00:43:30.311Z,10.90
2019-05-26T00:45:58.903Z,10.90
2019-05-26T00:48:27.556Z,10.80
2019-05-26T00:50:56.210Z,10.80
2019-05-26T00:53:24.837Z,10.80
2019-05-26T00:55:53.418Z,10.70
2019-05-26T00:58:21.985Z,10.70
2019-05-26T01:00:50.498Z,10.70
2019-05-26T01:03:19.204Z,10.70
2019-05-26T01:05:47.859Z,10.70
2019-05-26T01:08:16.429Z,10.70
2019-05-26T01:10:44.947Z,10.70
2019-05-26T01:13:13.511Z,10.60
2019-05-26T01:15:43.762Z,10.70
2019-05-26T01:18:12.347Z,10.60
2019-05-26T01:20:40.932Z,10.60
2019-05-26T01:23:09.497Z,10.60
2019-05-26T01:25:38.018Z,10.60
2019-05-26T01:28:06.587Z,10.60
2019-05-26T01:30:40.848Z,10.60
2019-05-26T01:33:09.409Z,10.60
2019-05-26T01:35:40.529Z,10.60
2019-05-26T01:38:23.040Z,10.60
2019-05-26T01:40:43.907Z,10.60
2019-05-26T01:43:12.614Z,10.50
2019-05-26T01:45:41.194Z,10.50
2019-05-26T01:48:10.103Z,10.50
2019-05-26T01:50:38.781Z,10.50
2019-05-26T01:53:07.529Z,10.50
2019-05-26T01:55:36.186Z,10.50
2019-05-26T01:58:05.309Z,10.50
2019-05-26T02:00:34.034Z,10.50
2019-05-26T02:03:02.670Z,10.50
2019-05-26T02:05:31.322Z,10.40
2019-05-26T02:07:59.957Z,10.40
2019-05-26T02:10:28.539Z,10.30
2019-05-26T02:12:57.115Z,10.40
2019-05-26T02:15:26.235Z,10.40
2019-05-26T02:17:54.871Z,10.40
2019-05-26T02:20:23.598Z,10.40
2019-05-26T02:22:52.231Z,10.40
2019-05-26T02:25:21.184Z,10.40
2019-05-26T02:27:49.769Z,10.40
2019-05-26T02:30:18.609Z,10.40
2019-05-26T02:32:47.165Z,10.40
2019-05-26T02:35:16.471Z,10.40
2019-05-26T02:37:45.066Z,10.40
2019-05-26T02:40:15.559Z,10.40
2019-05-26T02:42:44.202Z,10.40
2019-05-26T02:45:17.469Z,10.40
2019-05-26T02:47:46.846Z,10.50
2019-05-26T02:50:17.494Z,10.50
2019-05-26T02:52:46.078Z,10.50
2019-05-26T02:55:14.887Z,10.60
2019-05-26T02:57:43.558Z,10.70
2019-05-26T03:00:13.370Z,10.80
2019-05-26T03:02:42.186Z,10.90
2019-05-26T03:05:11.613Z,11.00
2019-05-26T03:07:43.172Z,11.10
2019-05-26T03:10:13.502Z,11.10
2019-05-26T03:12:42.800Z,11.20
2019-05-26T03:15:13.568Z,11.20
2019-05-26T03:17:42.838Z,11.20
2019-05-26T03:20:13.546Z,11.20
2019-05-26T03:22:43.042Z,11.20
2019-05-26T03:25:12.343Z,11.10
2019-05-26T03:27:41.098Z,11.10
2019-05-26T03:30:10.325Z,11.10
2019-05-26T03:32:39.187Z,11.00
2019-05-26T03:35:09.394Z,11.10
2019-05-26T03:37:38.048Z,11.10
2019-05-26T03:40:10.300Z,11.10
2019-05-26T03:42:38.895Z,11.20
2019-05-26T03:45:07.916Z,11.30
2019-05-26T03:47:36.569Z,11.30
2019-05-26T03:50:06.840Z,11.30
2019-05-26T03:52:35.428Z,11.30
2019-05-26T03:55:06.044Z,11.40
2019-05-26T03:57:34.623Z,11.40
2019-05-26T04:00:05.191Z,11.40
2019-05-26T04:02:33.787Z,11.40
2019-05-26T04:05:02.365Z,11.50
2019-05-26T04:07:31.025Z,11.60
2019-05-26T04:10:05.280Z,11.60
2019-05-26T04:12:30.338Z,11.60
2019-05-26T04:14:58.903Z,11.70
2019-05-26T04:17:27.499Z,11.80
2019-05-26T04:19:56.080Z,11.80
2019-05-26T04:22:24.660Z,11.80
2019-05-26T04:24:53.233Z,11.80
2019-05-26T04:27:21.747Z,11.80
2019-05-26T04:29:50.390Z,11.90
2019-05-26T04:32:18.986Z,11.90
2019-05-26T04:34:47.561Z,11.90
2019-05-26T04:37:16.218Z,11.90
2019-05-26T04:39:44.729Z,11.90
2019-05-26T04:42:13.256Z,12.00
2019-05-26T04:44:41.830Z,12.00
2019-05-26T04:47:10.427Z,12.10
2019-05-26T04:49:39.006Z,12.20
2019-05-26T04:52:07.601Z,12.30
2019-05-26T04:54:36.175Z,12.40
2019-05-26T04:57:05.411Z,12.50
2019-05-26T04:59:33.979Z,12.60
2019-05-26T05:02:02.576Z,12.60
2019-05-26T05:04:31.220Z,12.70
2019-05-26T05:06:59.808Z,12.80
2019-05-26T05:09:28.380Z,12.80
2019-05-26T05:11:56.955Z,12.80
2019-05-26T05:14:25.556Z,12.90
2019-05-26T05:16:54.053Z,13.00
2019-05-26T05:19:22.647Z,13.00
2019-05-26T05:21:51.222Z,13.10
2019-05-26T05:24:19.734Z,13.10
2019-05-26T05:26:48.230Z,13.20
2019-05-26T05:29:16.824Z,13.20
2019-05-26T05:31:45.326Z,13.30
2019-05-26T05:34:13.852Z,13.50
2019-05-26T05:36:42.430Z,13.50
2019-05-26T05:39:10.966Z,13.60
2019-05-26T05:41:39.523Z,13.70
2019-05-26T05:44:08.118Z,13.80
2019-05-26T05:46:36.686Z,13.90
2019-05-26T05:49:05.341Z,14.10
2019-05-26T05:51:33.919Z,14.10
2019-05-26T05:54:02.535Z,14.30
2019-05-26T05:56:31.106Z,14.30
2019-05-26T05:58:59.702Z,14.40
2019-05-26T06:01:28.273Z,14.50
2019-05-26T06:03:56.860Z,14.50
2019-05-26T06:06:25.356Z,14.40
2019-05-26T06:08:53.950Z,14.50
2019-05-26T06:11:22.526Z,14.70
2019-05-26T06:13:51.042Z,14.80
2019-05-26T06:16:19.625Z,15.00
2019-05-26T06:18:48.228Z,15.30
2019-05-26T06:21:16.802Z,15.40
2019-05-26T06:23:45.314Z,15.50
2019-05-26T06:26:13.816Z,15.20
2019-05-26T06:28:42.406Z,15.30
2019-05-26T06:31:10.898Z,15.70
2019-05-26T06:33:39.489Z,15.50
2019-05-26T06:36:08.071Z,15.70
2019-05-26T06:38:36.657Z,15.90
2019-05-26T06:41:05.176Z,16.00
2019-05-26T06:43:33.951Z,16.10
2019-05-26T06:46:02.555Z,16.20
2019-05-26T06:48:31.113Z,16.40
2019-05-26T06:50:59.623Z,16.60
2019-05-26T06:53:28.222Z,17.00
2019-05-26T06:55:56.793Z,17.50
2019-05-26T06:58:25.383Z,18.40
2019-05-26T07:00:53.985Z,18.70
2019-05-26T07:03:22.578Z,19.50
2019-05-26T07:05:51.077Z,19.70
2019-05-26T07:08:19.692Z,19.30
2019-05-26T07:10:48.255Z,18.40
2019-05-26T07:13:16.873Z,17.70
2019-05-26T07:15:45.369Z,17.30
2019-05-26T07:18:13.910Z,17.20
2019-05-26T07:20:42.821Z,16.90
2019-05-26T07:23:11.577Z,16.80
2019-05-26T07:25:40.152Z,16.50
2019-05-26T07:28:08.830Z,16.70
2019-05-26T07:30:37.385Z,16.60
2019-05-26T07:33:05.971Z,16.70
2019-05-26T07:35:34.571Z,16.70
2019-05-26T07:38:03.153Z,16.50
2019-05-26T07:40:31.702Z,16.50
2019-05-26T07:43:00.294Z,16.50
2019-05-26T07:45:28.874Z,16.50
2019-05-26T07:47:57.458Z,16.50
2019-05-26T07:50:26.068Z,16.50
2019-05-26T07:52:54.694Z,16.40
2019-05-26T07:55:23.343Z,16.50
2019-05-26T07:57:51.911Z,16.30
2019-05-26T08:00:21.043Z,16.30
2019-05-26T08:02:49.614Z,16.20
2019-05-26T08:05:18.204Z,16.20
2019-05-26T08:07:46.776Z,16.30
2019-05-26T08:10:16.604Z,16.30
2019-05-26T08:12:45.173Z,16.30
2019-05-26T08:15:15.794Z,16.30
2019-05-26T08:17:44.373Z,16.30
2019-05-26T08:20:13.241Z,16.40
2019-05-26T08:22:41.819Z,16.50
2019-05-26T08:25:10.856Z,16.60
2019-05-26T08:27:39.429Z,16.70
2019-05-26T08:30:09.630Z,16.70
2019-05-26T08:32:38.149Z,16.90
2019-05-26T08:35:07.474Z,16.90
2019-05-26T08:37:36.045Z,17.00
2019-05-26T08:40:18.118Z,17.00
2019-05-26T08:42:50.465Z,17.00
2019-05-26T08:45:22.045Z,17.20
2019-05-26T08:47:51.246Z,17.30
2019-05-26T08:50:20.100Z,17.30
2019-05-26T08:52:48.676Z,17.30
2019-05-26T08:55:17.430Z,17.40
2019-05-26T08:57:45.943Z,17.40
2019-05-26T09:00:16.173Z,17.40
2019-05-26T09:02:44.818Z,17.40
2019-05-26T09:05:16.650Z,17.50
2019-05-26T09:07:45.221Z,17.80
2019-05-26T09:10:14.450Z,17.90
2019-05-26T09:12:43.027Z,18.00
2019-05-26T09:15:12.555Z,18.30
2019-05-26T09:17:41.120Z,18.40
2019-05-26T09:20:11.955Z,18.50
2019-05-26T09:22:40.624Z,18.70
2019-05-26T09:25:09.413Z,18.90
2019-05-26T09:27:37.971Z,19.10
2019-05-26T09:30:07.111Z,19.10
2019-05-26T09:32:35.678Z,19.20
2019-05-26T09:35:06.402Z,19.20
2019-05-26T09:37:35.053Z,19.20
2019-05-26T09:40:06.158Z,19.30
2019-05-26T09:42:34.727Z,19.30
2019-05-26T09:45:04.553Z,19.40
2019-05-26T09:47:33.050Z,19.60
2019-05-26T09:50:01.718Z,19.70
2019-05-26T09:52:30.212Z,19.90
2019-05-26T09:54:58.798Z,20.10
2019-05-26T09:57:27.298Z,20.10
2019-05-26T09:59:55.880Z,20.00
2019-05-26T10:02:24.455Z,19.90
2019-05-26T10:04:53.038Z,19.90
2019-05-26T10:07:21.618Z,20.10
2019-05-26T10:09:50.209Z,20.40
2019-05-26T10:12:18.774Z,20.60
2019-05-26T10:14:47.947Z,20.80
2019-05-26T10:17:16.533Z,20.80
2019-05-26T10:19:45.045Z,20.90
2019-05-26T10:22:13.616Z,20.50
2019-05-26T10:24:42.206Z,20.50
2019-05-26T10:27:10.769Z,20.40
2019-05-26T10:29:39.451Z,20.30
2019-05-26T10:32:08.164Z,20.30
2019-05-26T10:34:36.749Z,20.20
2019-05-26T10:37:05.414Z,20.20
2019-05-26T10:39:33.990Z,20.10
2019-05-26T10:42:02.699Z,20.30
2019-05-26T10:44:31.280Z,20.40
2019-05-26T10:46:59.780Z,20.60
2019-05-26T10:49:28.366Z,20.50
2019-05-26T10:51:56.861Z,20.50
2019-05-26T10:54:25.375Z,20.70
2019-05-26T10:56:53.939Z,20.90
2019-05-26T10:59:22.595Z,21.00
2019-05-26T11:01:51.158Z,21.30
2019-05-26T11:04:19.760Z,21.40
2019-05-26T11:06:48.312Z,21.60
2019-05-26T11:09:16.899Z,21.60
2019-05-26T11:11:45.472Z,21.50
2019-05-26T11:14:14.135Z,21.40
2019-05-26T11:16:44.406Z,21.30
2019-05-26T11:19:13.073Z,21.40
2019-05-26T11:21:41.580Z,21.40
2019-05-26T11:24:10.139Z,21.40
2019-05-26T11:26:38.713Z,21.40
2019-05-26T11:29:07.203Z,21.40
2019-05-26T11:31:35.710Z,21.40
2019-05-26T11:34:04.434Z,21.40
2019-05-26T11:36:33.038Z,21.40
2019-05-26T11:39:01.589Z,21.60
2019-05-26T11:41:30.649Z,21.70
2019-05-26T11:43:59.209Z,21.70
2019-05-26T11:46:27.818Z,21.80
2019-05-26T11:48:56.319Z,21.90
2019-05-26T11:51:24.911Z,21.80
2019-05-26T11:53:53.471Z,21.80
2019-05-26T11:56:21.988Z,21.70
2019-05-26T11:58:50.546Z,21.50
2019-05-26T12:01:22.655Z,21.50
2019-05-26T12:03:49.345Z,21.50
2019-05-26T12:06:17.934Z,21.70
2019-05-26T12:08:46.504Z,21.90
2019-05-26T12:11:15.090Z,21.80
2019-05-26T12:13:43.650Z,21.80
2019-05-26T12:16:12.160Z,22.00
2019-05-26T12:18:40.732Z,22.20
2019-05-26T12:21:09.309Z,22.30
2019-05-26T12:23:37.883Z,22.20
2019-05-26T12:26:06.470Z,22.20
2019-05-26T12:28:35.055Z,22.20
2019-05-26T12:31:03.706Z,22.20
2019-05-26T12:33:32.274Z,22.10
2019-05-26T12:36:00.782Z,22.00
2019-05-26T12:38:29.366Z,21.80
2019-05-26T12:40:57.889Z,21.70
2019-05-26T12:43:26.484Z,21.60
2019-05-26T12:45:55.145Z,21.60
2019-05-26T12:48:23.736Z,21.60
2019-05-26T12:50:52.366Z,21.60
2019-05-26T12:53:20.863Z,21.60
2019-05-26T12:55:49.374Z,21.60
2019-05-26T12:58:18.014Z,21.80
2019-05-26T13:00:49.743Z,22.00
2019-05-26T13:03:16.817Z,22.00
2019-05-26T13:05:45.410Z,22.10
2019-05-26T13:08:13.983Z,21.90
2019-05-26T13:10:42.569Z,22.00
2019-05-26T13:13:11.215Z,22.00
2019-05-26T13:15:39.802Z,22.10
2019-05-26T13:18:08.364Z,22.20
2019-05-26T13:20:36.950Z,22.10
2019-05-26T13:23:05.532Z,22.00
2019-05-26T13:25:34.284Z,22.00
2019-05-26T13:28:02.878Z,22.10
2019-05-26T13:30:32.278Z,22.10
2019-05-26T13:33:00.866Z,22.20
2019-05-26T13:35:29.452Z,22.20
2019-05-26T13:37:58.017Z,22.40
2019-05-26T13:40:29.535Z,22.50
2019-05-26T13:42:56.884Z,22.40
2019-05-26T13:45:25.474Z,22.30
2019-05-26T13:47:53.963Z,22.50
2019-05-26T13:50:22.624Z,22.60
2019-05-26T13:52:51.183Z,22.60
2019-05-26T13:55:20.211Z,22.40
2019-05-26T13:57:49.735Z,22.30
2019-05-26T14:00:19.107Z,22.10
2019-05-26T14:02:47.750Z,21.90
2019-05-26T14:05:17.473Z,21.80
2019-05-26T14:07:46.056Z,21.60
2019-05-26T14:10:16.358Z,21.50
2019-05-26T14:12:44.997Z,21.30
2019-05-26T14:15:15.174Z,21.00
2019-05-26T14:17:44.206Z,20.80
2019-05-26T14:20:13.121Z,20.70
2019-05-26T14:22:41.709Z,20.60
2019-05-26T14:25:10.911Z,20.50
2019-05-26T14:27:39.495Z,20.50
2019-05-26T14:30:08.899Z,20.60
2019-05-26T14:32:37.562Z,20.70
2019-05-26T14:35:06.997Z,20.80
2019-05-26T14:37:35.595Z,20.70
2019-05-26T14:40:07.219Z,20.60
2019-05-26T14:42:35.815Z,20.50
2019-05-26T14:45:06.214Z,20.60
2019-05-26T14:47:34.809Z,20.70
2019-05-26T14:50:05.090Z,20.70
2019-05-26T14:52:33.704Z,20.80
2019-05-26T14:55:02.251Z,20.90
2019-05-26T14:57:31.146Z,21.00
2019-05-26T14:59:59.748Z,21.10
2019-05-26T15:02:28.287Z,21.10
2019-05-26T15:04:56.960Z,21.30
2019-05-26T15:07:25.545Z,21.30
2019-05-26T15:09:54.114Z,21.40
2019-05-26T15:12:22.713Z,21.40
2019-05-26T15:14:51.278Z,21.50
2019-05-26T15:17:19.825Z,21.40
2019-05-26T15:19:48.396Z,21.30
2019-05-26T15:22:16.979Z,21.30
2019-05-26T15:24:45.466Z,21.40
2019-05-26T15:27:14.056Z,21.30
2019-05-26T15:29:42.621Z,21.20
2019-05-26T15:32:11.136Z,21.30
2019-05-26T15:34:39.707Z,21.30
2019-05-26T15:37:08.293Z,21.20
2019-05-26T15:39:36.862Z,21.20
2019-05-26T15:42:08.228Z,21.20
2019-05-26T15:44:35.731Z,21.10
2019-05-26T15:47:04.315Z,21.10
2019-05-26T15:49:32.887Z,21.10
2019-05-26T15:52:01.470Z,21.10
2019-05-26T15:54:30.110Z,21.20
2019-05-26T15:56:58.699Z,21.10
2019-05-26T15:59:27.341Z,21.20
2019-05-26T16:01:55.856Z,21.10
2019-05-26T16:04:24.425Z,21.10
2019-05-26T16:06:53.078Z,21.00
2019-05-26T16:09:21.641Z,20.80
2019-05-26T16:11:50.154Z,20.90
2019-05-26T16:14:18.730Z,20.80
2019-05-26T16:16:50.566Z,20.80
2019-05-26T16:19:17.529Z,20.80
2019-05-26T16:21:46.062Z,20.80
2019-05-26T16:24:14.647Z,20.70
2019-05-26T16:26:43.232Z,20.70
2019-05-26T16:29:11.871Z,20.70
2019-05-26T16:31:40.446Z,20.70
2019-05-26T16:34:09.014Z,20.70
2019-05-26T16:36:37.621Z,20.60
2019-05-26T16:39:07.336Z,20.60
2019-05-26T16:41:35.909Z,20.50
2019-05-26T16:44:04.713Z,20.50
2019-05-26T16:46:33.303Z,20.40
2019-05-26T16:49:01.878Z,20.40
2019-05-26T16:51:30.462Z,20.30
2019-05-26T16:53:58.966Z,20.30
2019-05-26T16:56:27.945Z,20.30
2019-05-26T16:58:56.445Z,20.20
2019-05-26T17:01:25.035Z,20.20
2019-05-26T17:03:53.593Z,20.10
2019-05-26T17:06:22.087Z,20.10
2019-05-26T17:08:50.680Z,20.10
2019-05-26T17:11:22.571Z,20.10
2019-05-26T17:13:51.088Z,20.20
2019-05-26T17:16:21.626Z,20.20
2019-05-26T17:18:49.906Z,20.20
2019-05-26T17:21:18.451Z,20.20
2019-05-26T17:23:47.034Z,20.30
2019-05-26T17:26:15.600Z,20.30
2019-05-26T17:28:44.199Z,20.30
2019-05-26T17:31:12.769Z,20.20
2019-05-26T17:33:41.365Z,20.20
2019-05-26T17:36:09.857Z,20.10
2019-05-26T17:38:38.377Z,20.10
2019-05-26T17:41:18.563Z,20.10
2019-05-26T17:43:47.181Z,20.00
2019-05-26T17:46:15.735Z,20.00
2019-05-26T17:48:44.322Z,20.00
2019-05-26T17:51:12.822Z,20.00
2019-05-26T17:53:41.461Z,20.00
2019-05-26T17:56:10.020Z,19.90
2019-05-26T17:58:38.608Z,19.90
2019-05-26T18:01:07.341Z,20.00
2019-05-26T18:03:37.506Z,20.00
2019-05-26T18:06:05.998Z,20.00
2019-05-26T18:08:36.497Z,20.10
2019-05-26T18:11:04.950Z,20.00
2019-05-26T18:13:33.561Z,20.00
2019-05-26T18:16:02.102Z,20.00
2019-05-26T18:18:30.692Z,19.90
2019-05-26T18:20:59.261Z,19.90
2019-05-26T18:23:27.845Z,19.90
2019-05-26T18:25:56.412Z,19.90
2019-05-26T18:28:24.998Z,19.80
2019-05-26T18:30:53.561Z,19.80
2019-05-26T18:33:22.138Z,19.80
2019-05-26T18:35:50.711Z,19.70
2019-05-26T18:38:19.294Z,19.70
2019-05-26T18:40:47.872Z,19.70
2019-05-26T18:43:16.444Z,19.60
2019-05-26T18:45:45.010Z,19.60
2019-05-26T18:48:13.589Z,19.50
2019-05-26T18:50:42.149Z,19.50
2019-05-26T18:53:10.653Z,19.40
2019-05-26T18:55:39.219Z,19.40
2019-05-26T18:58:07.741Z,19.30
2019-05-26T19:00:36.522Z,19.40
2019-05-26T19:03:05.358Z,19.30
2019-05-26T19:05:38.065Z,19.30
2019-05-26T19:08:04.243Z,19.20
2019-05-26T19:10:32.869Z,19.20
2019-05-26T19:13:01.383Z,19.20
2019-05-26T19:15:29.989Z,19.20
2019-05-26T19:17:58.552Z,19.20
2019-05-26T19:20:27.281Z,19.10
2019-05-26T19:22:55.925Z,19.10
2019-05-26T19:25:24.562Z,19.10
2019-05-26T19:27:53.087Z,19.10
2019-05-26T19:30:21.794Z,19.00
2019-05-26T19:32:50.448Z,19.00
2019-05-26T19:35:19.127Z,18.90
2019-05-26T19:37:47.717Z,18.90
2019-05-26T19:40:17.536Z,18.90
2019-05-26T19:42:46.118Z,18.90
2019-05-26T19:45:14.849Z,18.90
2019-05-26T19:47:43.377Z,18.90
2019-05-26T19:50:12.178Z,18.90
2019-05-26T19:52:40.705Z,18.90
2019-05-26T19:55:09.506Z,18.80
2019-05-26T19:57:38.083Z,18.80
2019-05-26T20:00:13.454Z,18.80
2019-05-26T20:02:42.108Z,18.80
2019-05-26T20:05:11.036Z,18.80
2019-05-26T20:07:39.705Z,18.80
2019-05-26T20:10:09.501Z,18.80
2019-05-26T20:12:38.077Z,18.80
2019-05-26T20:15:07.682Z,18.80
2019-05-26T20:17:36.270Z,18.70
2019-05-26T20:20:09.157Z,18.70
2019-05-26T20:22:37.816Z,18.70
2019-05-26T20:25:08.425Z,18.70
2019-05-26T20:27:36.936Z,18.80
2019-05-26T20:30:08.648Z,18.80
2019-05-26T20:32:37.241Z,18.70
2019-05-26T20:35:07.260Z,18.70
2019-05-26T20:37:35.842Z,18.70
2019-05-26T20:40:09.756Z,18.70
2019-05-26T20:42:38.356Z,18.70
2019-05-26T20:45:07.967Z,18.70
2019-05-26T20:47:36.581Z,18.70
2019-05-26T20:50:07.591Z,18.70
2019-05-26T20:52:36.721Z,18.70
2019-05-26T20:55:06.380Z,18.70
2019-05-26T20:57:34.878Z,18.60
2019-05-26T21:00:08.378Z,18.50
2019-05-26T21:02:37.514Z,18.50
2019-05-26T21:05:08.190Z,18.50
2019-05-26T21:07:36.677Z,18.50
2019-05-26T21:10:07.069Z,18.40
2019-05-26T21:12:35.724Z,18.40
2019-05-26T21:15:05.729Z,18.40
2019-05-26T21:17:34.314Z,18.30
2019-05-26T21:20:03.753Z,18.30
2019-05-26T21:22:32.318Z,18.20
2019-05-26T21:25:00.956Z,18.20
2019-05-26T21:27:29.479Z,18.10
2019-05-26T21:29:58.081Z,18.10
2019-05-26T21:32:26.646Z,18.10
2019-05-26T21:34:55.216Z,18.00
2019-05-26T21:37:23.879Z,18.00
2019-05-26T21:39:52.465Z,17.90
2019-05-26T21:42:21.029Z,17.90
2019-05-26T21:44:49.621Z,17.90
2019-05-26T21:47:18.190Z,17.90
2019-05-26T21:49:46.840Z,17.80
2019-05-26T21:52:15.405Z,17.80
2019-05-26T21:54:43.988Z,17.80
2019-05-26T21:57:12.551Z,17.80
2019-05-26T21:59:41.142Z,17.70
2019-05-26T22:02:09.705Z,17.70
2019-05-26T22:04:38.291Z,17.60
2019-05-26T22:07:06.926Z,17.60
2019-05-26T22:09:35.510Z,17.60
2019-05-26T22:12:04.080Z,17.60
2019-05-26T22:14:32.649Z,17.60
2019-05-26T22:17:01.149Z,17.60
2019-05-26T22:19:29.671Z,17.60
2019-05-26T22:21:58.238Z,17.60
2019-05-26T22:24:26.824Z,17.50
2019-05-26T22:26:55.398Z,17.50
2019-05-26T22:29:23.982Z,17.50
2019-05-26T22:31:52.559Z,17.50
2019-05-26T22:34:21.151Z,17.40
2019-05-26T22:36:49.720Z,17.40
2019-05-26T22:39:18.228Z,17.40
2019-05-26T22:41:46.790Z,17.30
2019-05-26T22:44:15.375Z,17.30
2019-05-26T22:46:43.938Z,17.20
2019-05-26T22:49:12.522Z,17.20
2019-05-26T22:51:41.094Z,17.20
2019-05-26T22:54:09.605Z,17.20
2019-05-26T22:56:38.186Z,17.20
2019-05-26T22:59:06.765Z,17.20
2019-05-26T23:01:35.399Z,17.20
2019-05-26T23:04:03.982Z,17.20
2019-05-26T23:06:32.547Z,17.20
2019-05-26T23:09:01.133Z,17.10
2019-05-26T23:11:29.695Z,17.10
2019-05-26T23:13:58.277Z,17.10
2019-05-26T23:16:26.762Z,17.10
2019-05-26T23:18:55.346Z,17.10
2019-05-26T23:21:23.907Z,17.00
2019-05-26T23:23:52.574Z,17.00
2019-05-26T23:26:21.142Z,17.00
2019-05-26T23:28:49.721Z,16.90
2019-05-26T23:31:18.294Z,16.90
2019-05-26T23:33:46.807Z,16.90
2019-05-26T23:36:15.380Z,16.90
2019-05-26T23:38:43.983Z,16.90
2019-05-26T23:41:12.547Z,16.90
2019-05-26T23:43:41.114Z,16.80
2019-05-26T23:46:09.623Z,16.70
2019-05-26T23:48:38.257Z,16.60
2019-05-26T23:51:06.847Z,16.50
2019-05-26T23:53:35.407Z,16.30
2019-05-26T23:56:04.002Z,16.10
2019-05-26T23:58:32.580Z,16.00
